Terminal Aerodrome Forecast
Issued by NWS Medford, OR

Home | Current Version | Previous Version | Text Only | Print | Product List | Glossary On
Versions: 1 2 3 4 5 6 7 8 9 10 11 12 13 14
000
FTUS46 KMFR 020409 AAB
TAFMFR
TAF AMD
KMFR 020409Z 0204/0224 32010KT P6SM SCT200
     FM020500 34005KT P6SM SCT040
     FM021100 VRB04KT P6SM OVC040
     FM021800 32007KT P6SM BKN040
     FM022000 32012G17KT P6SM SCT040 BKN060=

USA.gov is the U.S. government's official web portal to all federal, state and local government web resources and services.